sensor_id;sensor_type;location;lat;lon;timestamp;temperature;humidity
8684;DHT22;4379;59.744;18.206;2022-12-18T00:01:26;-1.30;99.90
8684;DHT22;4379;59.744;18.206;2022-12-18T00:03:55;-1.30;99.90
8684;DHT22;4379;59.744;18.206;2022-12-18T00:06:26;-1.20;99.90
8684;DHT22;4379;59.744;18.206;2022-12-18T00:08:56;-1.20;99.90
8684;DHT22;4379;59.744;18.206;2022-12-18T00:11:26;-1.20;99.90
8684;DHT22;4379;59.744;18.206;2022-12-18T00:13:55;-1.20;99.90
8684;DHT22;4379;59.744;18.206;2022-12-18T00:16:24;-1.20;99.90
8684;DHT22;4379;59.744;18.206;2022-12-18T00:18:53;-1.20;99.90
8684;DHT22;4379;59.744;18.206;2022-12-18T00:21:21;-1.20;99.90
8684;DHT22;4379;59.744;18.206;2022-12-18T00:23:49;-1.20;99.90
8684;DHT22;4379;59.744;18.206;2022-12-18T00:26:23;-1.20;99.90
8684;DHT22;4379;59.744;18.206;2022-12-18T00:28:51;-1.20;99.90
8684;DHT22;4379;59.744;18.206;2022-12-18T00:31:21;-1.20;99.90
8684;DHT22;4379;59.744;18.206;2022-12-18T00:33:49;-1.10;99.90
8684;DHT22;4379;59.744;18.206;2022-12-18T00:36:27;-1.20;99.90
8684;DHT22;4379;59.744;18.206;2022-12-18T00:38:56;-1.10;99.90
8684;DHT22;4379;59.744;18.206;2022-12-18T00:41:24;-1.10;99.90
8684;DHT22;4379;59.744;18.206;2022-12-18T00:44:13;-1.10;99.90
8684;DHT22;4379;59.744;18.206;2022-12-18T00:46:41;-1.00;99.90
8684;DHT22;4379;59.744;18.206;2022-12-18T00:49:14;-1.00;99.90
8684;DHT22;4379;59.744;18.206;2022-12-18T00:51:42;-1.00;99.90
8684;DHT22;4379;59.744;18.206;2022-12-18T00:54:11;-1.00;99.90
8684;DHT22;4379;59.744;18.206;2022-12-18T00:56:38;-0.90;99.90
8684;DHT22;4379;59.744;18.206;2022-12-18T00:59:15;-0.90;99.90
8684;DHT22;4379;59.744;18.206;2022-12-18T01:01:43;-0.90;99.90
8684;DHT22;4379;59.744;18.206;2022-12-18T01:04:10;-0.90;99.90
8684;DHT22;4379;59.744;18.206;2022-12-18T01:06:37;-0.90;99.90
8684;DHT22;4379;59.744;18.206;2022-12-18T01:09:05;-0.90;99.90
8684;DHT22;4379;59.744;18.206;2022-12-18T01:11:33;-0.80;99.90
8684;DHT22;4379;59.744;18.206;2022-12-18T01:14:00;-0.80;99.90
8684;DHT22;4379;59.744;18.206;2022-12-18T01:16:27;-0.80;99.90
8684;DHT22;4379;59.744;18.206;2022-12-18T01:18:55;-0.70;99.90
8684;DHT22;4379;59.744;18.206;2022-12-18T01:21:23;-0.80;99.90
8684;DHT22;4379;59.744;18.206;2022-12-18T01:23:55;-0.80;99.90
8684;DHT22;4379;59.744;18.206;2022-12-18T01:26:23;-0.80;99.90
8684;DHT22;4379;59.744;18.206;2022-12-18T01:28:51;-0.70;99.90
8684;DHT22;4379;59.744;18.206;2022-12-18T01:31:26;-0.70;99.90
8684;DHT22;4379;59.744;18.206;2022-12-18T01:33:54;-0.70;99.90
8684;DHT22;4379;59.744;18.206;2022-12-18T01:36:33;-0.70;99.90
8684;DHT22;4379;59.744;18.206;2022-12-18T01:39:06;-0.60;99.90
8684;DHT22;4379;59.744;18.206;2022-12-18T01:41:34;-0.60;99.90
8684;DHT22;4379;59.744;18.206;2022-12-18T01:49:55;-0.60;99.90
8684;DHT22;4379;59.744;18.206;2022-12-18T01:52:24;-0.60;99.90
8684;DHT22;4379;59.744;18.206;2022-12-18T01:54:53;-0.60;99.90
8684;DHT22;4379;59.744;18.206;2022-12-18T01:57:22;-0.50;99.90
8684;DHT22;4379;59.744;18.206;2022-12-18T01:59:52;-0.60;99.90
8684;DHT22;4379;59.744;18.206;2022-12-18T02:02:21;-0.60;99.90
8684;DHT22;4379;59.744;18.206;2022-12-18T02:04:49;-0.50;99.90
8684;DHT22;4379;59.744;18.206;2022-12-18T02:07:29;-0.50;99.90
8684;DHT22;4379;59.744;18.206;2022-12-18T02:10:27;-0.50;99.90
8684;DHT22;4379;59.744;18.206;2022-12-18T02:13:14;-0.50;99.90
8684;DHT22;4379;59.744;18.206;2022-12-18T02:18:44;-0.50;99.90
8684;DHT22;4379;59.744;18.206;2022-12-18T02:24:45;-0.40;99.90
8684;DHT22;4379;59.744;18.206;2022-12-18T02:27:15;-0.40;99.90
8684;DHT22;4379;59.744;18.206;2022-12-18T02:29:54;-0.40;99.90
8684;DHT22;4379;59.744;18.206;2022-12-18T02:32:30;-0.40;99.90
8684;DHT22;4379;59.744;18.206;2022-12-18T02:34:59;-0.40;99.90
8684;DHT22;4379;59.744;18.206;2022-12-18T02:37:29;-0.40;99.90
8684;DHT22;4379;59.744;18.206;2022-12-18T02:39:58;-0.40;99.90
8684;DHT22;4379;59.744;18.206;2022-12-18T02:42:28;-0.40;99.90
8684;DHT22;4379;59.744;18.206;2022-12-18T02:44:55;-0.40;99.90
8684;DHT22;4379;59.744;18.206;2022-12-18T02:47:24;-0.40;99.90
8684;DHT22;4379;59.744;18.206;2022-12-18T02:50:02;-0.30;99.90
8684;DHT22;4379;59.744;18.206;2022-12-18T02:52:54;-0.30;99.90
8684;DHT22;4379;59.744;18.206;2022-12-18T02:55:59;-0.40;99.90
8684;DHT22;4379;59.744;18.206;2022-12-18T03:01:07;-0.40;99.90
8684;DHT22;4379;59.744;18.206;2022-12-18T03:03:59;-0.30;99.90
8684;DHT22;4379;59.744;18.206;2022-12-18T03:06:41;-0.30;99.90
8684;DHT22;4379;59.744;18.206;2022-12-18T03:09:17;-0.30;99.90
8684;DHT22;4379;59.744;18.206;2022-12-18T03:11:52;-0.30;99.90
8684;DHT22;4379;59.744;18.206;2022-12-18T03:14:40;-0.30;99.90
8684;DHT22;4379;59.744;18.206;2022-12-18T03:17:14;-0.30;99.90
8684;DHT22;4379;59.744;18.206;2022-12-18T03:19:44;-0.30;99.90
8684;DHT22;4379;59.744;18.206;2022-12-18T03:22:13;-0.30;99.90
8684;DHT22;4379;59.744;18.206;2022-12-18T03:24:41;-0.30;99.90
8684;DHT22;4379;59.744;18.206;2022-12-18T03:27:13;-0.30;99.90
8684;DHT22;4379;59.744;18.206;2022-12-18T03:29:45;-0.30;99.90
8684;DHT22;4379;59.744;18.206;2022-12-18T03:32:25;-0.30;99.90
8684;DHT22;4379;59.744;18.206;2022-12-18T03:34:56;-0.30;99.90
8684;DHT22;4379;59.744;18.206;2022-12-18T03:37:25;-0.30;99.90
8684;DHT22;4379;59.744;18.206;2022-12-18T03:39:52;-0.30;99.90
8684;DHT22;4379;59.744;18.206;2022-12-18T03:42:26;-0.30;99.90
8684;DHT22;4379;59.744;18.206;2022-12-18T03:45:03;-0.30;99.90
8684;DHT22;4379;59.744;18.206;2022-12-18T03:50:32;-0.30;99.90
8684;DHT22;4379;59.744;18.206;2022-12-18T03:53:28;-0.30;99.90
8684;DHT22;4379;59.744;18.206;2022-12-18T03:56:00;-0.30;99.90
8684;DHT22;4379;59.744;18.206;2022-12-18T03:58:29;-0.30;99.90
8684;DHT22;4379;59.744;18.206;2022-12-18T04:01:01;-0.30;99.90
8684;DHT22;4379;59.744;18.206;2022-12-18T04:03:30;-0.30;99.90
8684;DHT22;4379;59.744;18.206;2022-12-18T04:06:00;-0.40;99.90
8684;DHT22;4379;59.744;18.206;2022-12-18T04:08:28;-0.40;99.90
8684;DHT22;4379;59.744;18.206;2022-12-18T04:10:55;-0.40;99.90
8684;DHT22;4379;59.744;18.206;2022-12-18T04:13:32;-0.40;99.90
8684;DHT22;4379;59.744;18.206;2022-12-18T04:16:00;-0.40;99.90
8684;DHT22;4379;59.744;18.206;2022-12-18T04:18:28;-0.40;99.90
8684;DHT22;4379;59.744;18.206;2022-12-18T04:20:55;-0.40;99.90
8684;DHT22;4379;59.744;18.206;2022-12-18T04:23:22;-0.40;99.90
8684;DHT22;4379;59.744;18.206;2022-12-18T04:25:49;-0.50;99.90
8684;DHT22;4379;59.744;18.206;2022-12-18T04:28:17;-0.50;99.90
8684;DHT22;4379;59.744;18.206;2022-12-18T04:30:48;-0.60;99.90
8684;DHT22;4379;59.744;18.206;2022-12-18T04:33:15;-0.60;99.90
8684;DHT22;4379;59.744;18.206;2022-12-18T04:35:45;-0.50;99.90
8684;DHT22;4379;59.744;18.206;2022-12-18T04:38:12;-0.60;99.90
8684;DHT22;4379;59.744;18.206;2022-12-18T04:40:40;-0.60;99.90
8684;DHT22;4379;59.744;18.206;2022-12-18T04:43:08;-0.60;99.90
8684;DHT22;4379;59.744;18.206;2022-12-18T04:45:35;-0.60;99.90
8684;DHT22;4379;59.744;18.206;2022-12-18T04:48:03;-0.70;99.90
8684;DHT22;4379;59.744;18.206;2022-12-18T04:50:31;-0.60;99.90
8684;DHT22;4379;59.744;18.206;2022-12-18T04:52:58;-0.70;99.90
8684;DHT22;4379;59.744;18.206;2022-12-18T04:55:26;-0.60;99.90
8684;DHT22;4379;59.744;18.206;2022-12-18T04:57:53;-0.60;99.90
8684;DHT22;4379;59.744;18.206;2022-12-18T05:00:21;-0.70;99.90
8684;DHT22;4379;59.744;18.206;2022-12-18T05:02:48;-0.70;99.90
8684;DHT22;4379;59.744;18.206;2022-12-18T05:05:16;-0.70;99.90
8684;DHT22;4379;59.744;18.206;2022-12-18T05:07:43;-0.80;99.90
8684;DHT22;4379;59.744;18.206;2022-12-18T05:10:11;-0.80;99.90
8684;DHT22;4379;59.744;18.206;2022-12-18T05:12:39;-0.80;99.90
8684;DHT22;4379;59.744;18.206;2022-12-18T05:15:31;-0.80;99.90
8684;DHT22;4379;59.744;18.206;2022-12-18T05:17:59;-0.80;99.90
8684;DHT22;4379;59.744;18.206;2022-12-18T05:20:27;-0.90;99.90
8684;DHT22;4379;59.744;18.206;2022-12-18T05:22:55;-0.90;99.90
8684;DHT22;4379;59.744;18.206;2022-12-18T05:25:23;-0.90;99.90
8684;DHT22;4379;59.744;18.206;2022-12-18T05:27:50;-0.90;99.90
8684;DHT22;4379;59.744;18.206;2022-12-18T05:30:18;-0.90;99.90
8684;DHT22;4379;59.744;18.206;2022-12-18T05:32:45;-0.90;99.90
8684;DHT22;4379;59.744;18.206;2022-12-18T05:35:12;-0.90;99.90
8684;DHT22;4379;59.744;18.206;2022-12-18T05:37:39;-0.90;99.90
8684;DHT22;4379;59.744;18.206;2022-12-18T05:40:09;-0.90;99.90
8684;DHT22;4379;59.744;18.206;2022-12-18T05:42:37;-0.90;99.90
8684;DHT22;4379;59.744;18.206;2022-12-18T05:45:05;-0.90;99.90
8684;DHT22;4379;59.744;18.206;2022-12-18T05:47:33;-0.90;99.90
8684;DHT22;4379;59.744;18.206;2022-12-18T05:50:00;-0.90;99.90
8684;DHT22;4379;59.744;18.206;2022-12-18T05:52:28;-0.80;99.90
8684;DHT22;4379;59.744;18.206;2022-12-18T05:54:55;-0.80;99.90
8684;DHT22;4379;59.744;18.206;2022-12-18T05:57:22;-0.80;99.90
8684;DHT22;4379;59.744;18.206;2022-12-18T05:59:49;-0.80;99.90
8684;DHT22;4379;59.744;18.206;2022-12-18T06:02:17;-0.80;99.90
8684;DHT22;4379;59.744;18.206;2022-12-18T06:04:44;-0.90;99.90
8684;DHT22;4379;59.744;18.206;2022-12-18T06:07:11;-0.90;99.90
8684;DHT22;4379;59.744;18.206;2022-12-18T06:09:39;-0.90;99.90
8684;DHT22;4379;59.744;18.206;2022-12-18T06:12:06;-0.80;99.90
8684;DHT22;4379;59.744;18.206;2022-12-18T06:14:33;-0.90;99.90
8684;DHT22;4379;59.744;18.206;2022-12-18T06:17:01;-0.90;99.90
8684;DHT22;4379;59.744;18.206;2022-12-18T06:19:28;-0.80;99.90
8684;DHT22;4379;59.744;18.206;2022-12-18T06:21:55;-0.80;99.90
8684;DHT22;4379;59.744;18.206;2022-12-18T06:24:24;-0.80;99.90
8684;DHT22;4379;59.744;18.206;2022-12-18T06:26:51;-0.80;99.90
8684;DHT22;4379;59.744;18.206;2022-12-18T06:29:19;-0.90;99.90
8684;DHT22;4379;59.744;18.206;2022-12-18T06:31:46;-0.90;99.90
8684;DHT22;4379;59.744;18.206;2022-12-18T06:34:13;-0.90;99.90
8684;DHT22;4379;59.744;18.206;2022-12-18T06:36:40;-0.80;99.90
8684;DHT22;4379;59.744;18.206;2022-12-18T06:39:07;-0.80;99.90
8684;DHT22;4379;59.744;18.206;2022-12-18T06:41:35;-0.80;99.90
8684;DHT22;4379;59.744;18.206;2022-12-18T06:44:02;-0.80;99.90
8684;DHT22;4379;59.744;18.206;2022-12-18T06:46:30;-0.80;99.90
8684;DHT22;4379;59.744;18.206;2022-12-18T06:48:57;-0.80;99.90
8684;DHT22;4379;59.744;18.206;2022-12-18T06:51:24;-0.80;99.90
8684;DHT22;4379;59.744;18.206;2022-12-18T06:53:51;-0.80;99.90
8684;DHT22;4379;59.744;18.206;2022-12-18T06:56:18;-0.80;99.90
8684;DHT22;4379;59.744;18.206;2022-12-18T06:58:46;-0.80;99.90
8684;DHT22;4379;59.744;18.206;2022-12-18T07:01:13;-0.80;99.90
8684;DHT22;4379;59.744;18.206;2022-12-18T07:03:41;-0.80;99.90
8684;DHT22;4379;59.744;18.206;2022-12-18T07:06:18;-0.80;99.90
8684;DHT22;4379;59.744;18.206;2022-12-18T07:08:46;-0.80;99.90
8684;DHT22;4379;59.744;18.206;2022-12-18T07:11:14;-0.80;99.90
8684;DHT22;4379;59.744;18.206;2022-12-18T07:13:41;-0.80;99.90
8684;DHT22;4379;59.744;18.206;2022-12-18T07:16:15;-0.80;99.90
8684;DHT22;4379;59.744;18.206;2022-12-18T07:18:50;-0.80;99.90
8684;DHT22;4379;59.744;18.206;2022-12-18T07:21:19;-0.70;99.90
8684;DHT22;4379;59.744;18.206;2022-12-18T07:23:46;-0.70;99.90
8684;DHT22;4379;59.744;18.206;2022-12-18T07:26:17;-0.70;99.90
8684;DHT22;4379;59.744;18.206;2022-12-18T07:28:45;-0.70;99.90
8684;DHT22;4379;59.744;18.206;2022-12-18T07:31:15;-0.70;99.90
8684;DHT22;4379;59.744;18.206;2022-12-18T07:33:43;-0.70;99.90
8684;DHT22;4379;59.744;18.206;2022-12-18T07:36:10;-0.70;99.90
8684;DHT22;4379;59.744;18.206;2022-12-18T07:38:38;-0.60;99.90
8684;DHT22;4379;59.744;18.206;2022-12-18T07:41:08;-0.60;99.90
8684;DHT22;4379;59.744;18.206;2022-12-18T07:43:36;-0.50;99.90
8684;DHT22;4379;59.744;18.206;2022-12-18T07:46:05;-0.60;99.90
8684;DHT22;4379;59.744;18.206;2022-12-18T07:48:33;-0.60;99.90
8684;DHT22;4379;59.744;18.206;2022-12-18T07:51:02;-0.60;99.90
8684;DHT22;4379;59.744;18.206;2022-12-18T07:53:32;-0.60;99.90
8684;DHT22;4379;59.744;18.206;2022-12-18T07:56:04;-0.60;99.90
8684;DHT22;4379;59.744;18.206;2022-12-18T07:58:52;-0.60;99.90
8684;DHT22;4379;59.744;18.206;2022-12-18T08:01:19;-0.50;99.90
8684;DHT22;4379;59.744;18.206;2022-12-18T08:03:47;-0.60;99.90
8684;DHT22;4379;59.744;18.206;2022-12-18T08:06:15;-0.60;99.90
8684;DHT22;4379;59.744;18.206;2022-12-18T08:08:43;-0.60;99.90
8684;DHT22;4379;59.744;18.206;2022-12-18T08:11:10;-0.50;99.90
8684;DHT22;4379;59.744;18.206;2022-12-18T08:13:37;-0.60;99.90
8684;DHT22;4379;59.744;18.206;2022-12-18T08:16:06;-0.60;99.90
8684;DHT22;4379;59.744;18.206;2022-12-18T08:18:35;-0.50;99.90
8684;DHT22;4379;59.744;18.206;2022-12-18T08:21:14;-0.50;99.90
8684;DHT22;4379;59.744;18.206;2022-12-18T08:23:42;-0.40;99.90
8684;DHT22;4379;59.744;18.206;2022-12-18T08:26:11;-0.50;99.90
8684;DHT22;4379;59.744;18.206;2022-12-18T08:28:39;-0.40;99.90
8684;DHT22;4379;59.744;18.206;2022-12-18T08:31:07;-0.40;99.90
8684;DHT22;4379;59.744;18.206;2022-12-18T08:33:35;-0.50;99.90
8684;DHT22;4379;59.744;18.206;2022-12-18T08:36:05;-0.50;99.90
8684;DHT22;4379;59.744;18.206;2022-12-18T08:38:33;-0.50;99.90
8684;DHT22;4379;59.744;18.206;2022-12-18T08:41:00;-0.40;99.90
8684;DHT22;4379;59.744;18.206;2022-12-18T08:43:27;-0.40;99.90
8684;DHT22;4379;59.744;18.206;2022-12-18T08:46:13;-0.30;99.90
8684;DHT22;4379;59.744;18.206;2022-12-18T08:48:44;-0.30;99.90
8684;DHT22;4379;59.744;18.206;2022-12-18T08:51:11;-0.20;99.90
8684;DHT22;4379;59.744;18.206;2022-12-18T08:53:39;-0.20;99.90
8684;DHT22;4379;59.744;18.206;2022-12-18T08:56:07;-0.20;99.90
8684;DHT22;4379;59.744;18.206;2022-12-18T08:58:34;-0.20;99.90
8684;DHT22;4379;59.744;18.206;2022-12-18T09:01:07;-0.20;99.90
8684;DHT22;4379;59.744;18.206;2022-12-18T09:03:36;-0.20;99.90
8684;DHT22;4379;59.744;18.206;2022-12-18T09:06:04;-0.20;99.90
8684;DHT22;4379;59.744;18.206;2022-12-18T09:08:35;-0.20;99.90
8684;DHT22;4379;59.744;18.206;2022-12-18T09:11:04;-0.10;99.90
8684;DHT22;4379;59.744;18.206;2022-12-18T09:13:31;0.00;99.90
8684;DHT22;4379;59.744;18.206;2022-12-18T09:15:58;-0.10;99.90
8684;DHT22;4379;59.744;18.206;2022-12-18T09:18:26;0.00;99.90
8684;DHT22;4379;59.744;18.206;2022-12-18T09:20:53;0.00;99.90
8684;DHT22;4379;59.744;18.206;2022-12-18T09:23:20;0.10;99.90
8684;DHT22;4379;59.744;18.206;2022-12-18T09:25:48;0.10;99.90
8684;DHT22;4379;59.744;18.206;2022-12-18T09:28:17;0.10;99.90
8684;DHT22;4379;59.744;18.206;2022-12-18T09:30:48;0.10;99.90
8684;DHT22;4379;59.744;18.206;2022-12-18T09:33:16;0.20;99.90
8684;DHT22;4379;59.744;18.206;2022-12-18T09:35:44;0.20;99.90
8684;DHT22;4379;59.744;18.206;2022-12-18T09:38:14;0.20;99.90
8684;DHT22;4379;59.744;18.206;2022-12-18T09:40:47;0.30;99.90
8684;DHT22;4379;59.744;18.206;2022-12-18T09:46:00;0.30;99.90
8684;DHT22;4379;59.744;18.206;2022-12-18T09:48:36;0.30;99.90
8684;DHT22;4379;59.744;18.206;2022-12-18T09:51:21;0.40;99.90
8684;DHT22;4379;59.744;18.206;2022-12-18T09:53:55;0.30;99.90
8684;DHT22;4379;59.744;18.206;2022-12-18T09:56:25;0.40;99.90
8684;DHT22;4379;59.744;18.206;2022-12-18T09:59:02;0.40;99.90
8684;DHT22;4379;59.744;18.206;2022-12-18T10:01:31;0.40;99.90
8684;DHT22;4379;59.744;18.206;2022-12-18T10:04:10;0.40;99.90
8684;DHT22;4379;59.744;18.206;2022-12-18T10:06:46;0.40;99.90
8684;DHT22;4379;59.744;18.206;2022-12-18T10:09:40;0.50;99.90
8684;DHT22;4379;59.744;18.206;2022-12-18T10:14:57;0.60;99.90
8684;DHT22;4379;59.744;18.206;2022-12-18T10:17:41;0.60;99.90
8684;DHT22;4379;59.744;18.206;2022-12-18T10:20:50;0.60;99.90
8684;DHT22;4379;59.744;18.206;2022-12-18T10:26:14;0.70;99.90
8684;DHT22;4379;59.744;18.206;2022-12-18T10:28:44;0.60;99.90
8684;DHT22;4379;59.744;18.206;2022-12-18T10:31:21;0.70;99.90
8684;DHT22;4379;59.744;18.206;2022-12-18T10:33:53;0.70;99.90
8684;DHT22;4379;59.744;18.206;2022-12-18T10:36:24;0.70;99.90
8684;DHT22;4379;59.744;18.206;2022-12-18T10:38:52;0.70;99.90
8684;DHT22;4379;59.744;18.206;2022-12-18T10:44:19;0.70;99.90
8684;DHT22;4379;59.744;18.206;2022-12-18T10:46:55;0.70;99.90
8684;DHT22;4379;59.744;18.206;2022-12-18T10:49:46;0.70;99.90
8684;DHT22;4379;59.744;18.206;2022-12-18T10:52:22;0.80;99.90
8684;DHT22;4379;59.744;18.206;2022-12-18T10:54:53;0.80;99.90
8684;DHT22;4379;59.744;18.206;2022-12-18T10:57:36;0.80;99.90
8684;DHT22;4379;59.744;18.206;2022-12-18T11:00:26;0.90;99.90
8684;DHT22;4379;59.744;18.206;2022-12-18T11:02:55;0.90;99.90
8684;DHT22;4379;59.744;18.206;2022-12-18T11:07:52;0.90;99.90
8684;DHT22;4379;59.744;18.206;2022-12-18T11:10:30;0.90;99.90
8684;DHT22;4379;59.744;18.206;2022-12-18T11:13:19;0.90;99.90
8684;DHT22;4379;59.744;18.206;2022-12-18T11:15:48;0.90;99.90
8684;DHT22;4379;59.744;18.206;2022-12-18T11:18:19;0.90;99.90
8684;DHT22;4379;59.744;18.206;2022-12-18T11:20:55;0.90;99.90
8684;DHT22;4379;59.744;18.206;2022-12-18T11:23:25;0.90;99.90
8684;DHT22;4379;59.744;18.206;2022-12-18T11:25:59;0.90;99.90
8684;DHT22;4379;59.744;18.206;2022-12-18T11:28:51;0.90;99.90
8684;DHT22;4379;59.744;18.206;2022-12-18T11:31:27;0.90;99.90
8684;DHT22;4379;59.744;18.206;2022-12-18T11:34:05;1.00;99.90
8684;DHT22;4379;59.744;18.206;2022-12-18T11:36:58;1.00;99.90
8684;DHT22;4379;59.744;18.206;2022-12-18T11:39:36;1.00;99.90
8684;DHT22;4379;59.744;18.206;2022-12-18T11:42:17;1.00;99.90
8684;DHT22;4379;59.744;18.206;2022-12-18T11:44:55;1.00;99.90
8684;DHT22;4379;59.744;18.206;2022-12-18T11:47:39;1.10;99.90
8684;DHT22;4379;59.744;18.206;2022-12-18T11:50:31;1.10;99.90
8684;DHT22;4379;59.744;18.206;2022-12-18T11:52:58;1.10;99.90
8684;DHT22;4379;59.744;18.206;2022-12-18T11:55:44;1.10;99.90
8684;DHT22;4379;59.744;18.206;2022-12-18T11:58:40;1.10;99.90
8684;DHT22;4379;59.744;18.206;2022-12-18T12:01:23;1.10;99.90
8684;DHT22;4379;59.744;18.206;2022-12-18T12:06:36;1.10;99.90
8684;DHT22;4379;59.744;18.206;2022-12-18T12:14:52;1.20;99.90
8684;DHT22;4379;59.744;18.206;2022-12-18T12:28:36;1.20;99.90
8684;DHT22;4379;59.744;18.206;2022-12-18T12:31:41;1.30;99.90
8684;DHT22;4379;59.744;18.206;2022-12-18T12:34:26;1.30;99.90
8684;DHT22;4379;59.744;18.206;2022-12-18T12:39:37;1.30;99.90
8684;DHT22;4379;59.744;18.206;2022-12-18T12:42:13;1.20;99.90
8684;DHT22;4379;59.744;18.206;2022-12-18T12:45:05;1.20;99.90
8684;DHT22;4379;59.744;18.206;2022-12-18T12:47:38;1.20;99.90
8684;DHT22;4379;59.744;18.206;2022-12-18T12:50:16;1.20;99.90
8684;DHT22;4379;59.744;18.206;2022-12-18T12:52:47;1.30;99.90
8684;DHT22;4379;59.744;18.206;2022-12-18T12:55:25;1.40;99.90
8684;DHT22;4379;59.744;18.206;2022-12-18T13:00:46;1.30;99.90
8684;DHT22;4379;59.744;18.206;2022-12-18T13:09:15;1.30;99.90
8684;DHT22;4379;59.744;18.206;2022-12-18T13:11:46;1.30;99.90
8684;DHT22;4379;59.744;18.206;2022-12-18T13:14:40;1.20;99.90
8684;DHT22;4379;59.744;18.206;2022-12-18T13:17:26;1.30;99.90
8684;DHT22;4379;59.744;18.206;2022-12-18T13:20:11;1.40;99.90
8684;DHT22;4379;59.744;18.206;2022-12-18T13:22:47;1.40;99.90
8684;DHT22;4379;59.744;18.206;2022-12-18T13:25:29;1.30;99.90
8684;DHT22;4379;59.744;18.206;2022-12-18T13:28:14;1.30;99.90
8684;DHT22;4379;59.744;18.206;2022-12-18T13:30:46;1.30;99.90
8684;DHT22;4379;59.744;18.206;2022-12-18T13:48:38;1.40;99.90
8684;DHT22;4379;59.744;18.206;2022-12-18T13:51:10;1.40;99.90
8684;DHT22;4379;59.744;18.206;2022-12-18T13:53:50;1.40;99.90
8684;DHT22;4379;59.744;18.206;2022-12-18T13:56:22;1.40;99.90
8684;DHT22;4379;59.744;18.206;2022-12-18T13:59:39;1.40;99.90
8684;DHT22;4379;59.744;18.206;2022-12-18T14:02:04;1.40;99.90
8684;DHT22;4379;59.744;18.206;2022-12-18T14:04:34;1.50;99.90
8684;DHT22;4379;59.744;18.206;2022-12-18T14:07:25;1.60;99.90
8684;DHT22;4379;59.744;18.206;2022-12-18T14:09:59;1.60;99.90
8684;DHT22;4379;59.744;18.206;2022-12-18T14:12:49;1.60;99.90
8684;DHT22;4379;59.744;18.206;2022-12-18T14:15:47;1.60;99.90
8684;DHT22;4379;59.744;18.206;2022-12-18T14:18:29;1.70;99.90
8684;DHT22;4379;59.744;18.206;2022-12-18T14:21:01;1.70;99.90
8684;DHT22;4379;59.744;18.206;2022-12-18T14:23:37;1.70;99.90
8684;DHT22;4379;59.744;18.206;2022-12-18T14:26:38;1.70;99.90
8684;DHT22;4379;59.744;18.206;2022-12-18T14:29:27;1.80;99.90
8684;DHT22;4379;59.744;18.206;2022-12-18T14:34:40;1.80;99.90
8684;DHT22;4379;59.744;18.206;2022-12-18T14:37:13;1.80;99.90
8684;DHT22;4379;59.744;18.206;2022-12-18T14:39:52;1.80;99.90
8684;DHT22;4379;59.744;18.206;2022-12-18T14:42:20;1.80;99.90
8684;DHT22;4379;59.744;18.206;2022-12-18T14:44:48;1.80;99.90
8684;DHT22;4379;59.744;18.206;2022-12-18T14:47:35;1.90;99.90
8684;DHT22;4379;59.744;18.206;2022-12-18T14:50:02;1.90;99.90
8684;DHT22;4379;59.744;18.206;2022-12-18T14:52:31;1.90;99.90
8684;DHT22;4379;59.744;18.206;2022-12-18T14:54:59;1.90;99.90
8684;DHT22;4379;59.744;18.206;2022-12-18T14:57:32;1.90;99.90
8684;DHT22;4379;59.744;18.206;2022-12-18T15:00:06;1.90;99.90
8684;DHT22;4379;59.744;18.206;2022-12-18T15:02:35;1.90;99.90
8684;DHT22;4379;59.744;18.206;2022-12-18T15:07:51;2.00;99.90
8684;DHT22;4379;59.744;18.206;2022-12-18T15:10:24;2.00;99.90
8684;DHT22;4379;59.744;18.206;2022-12-18T15:23:26;2.10;99.90
8684;DHT22;4379;59.744;18.206;2022-12-18T15:28:43;2.20;99.90
8684;DHT22;4379;59.744;18.206;2022-12-18T15:33:44;2.10;99.90
8684;DHT22;4379;59.744;18.206;2022-12-18T15:36:17;2.20;99.90
8684;DHT22;4379;59.744;18.206;2022-12-18T15:38:54;2.20;99.90
8684;DHT22;4379;59.744;18.206;2022-12-18T15:41:34;2.20;99.90
8684;DHT22;4379;59.744;18.206;2022-12-18T15:44:15;2.20;99.90
8684;DHT22;4379;59.744;18.206;2022-12-18T15:46:48;2.20;99.90
8684;DHT22;4379;59.744;18.206;2022-12-18T15:49:15;2.20;99.90
8684;DHT22;4379;59.744;18.206;2022-12-18T15:51:43;2.20;99.90
8684;DHT22;4379;59.744;18.206;2022-12-18T15:54:13;2.10;99.90
8684;DHT22;4379;59.744;18.206;2022-12-18T15:56:42;2.10;99.90
8684;DHT22;4379;59.744;18.206;2022-12-18T15:59:28;2.10;99.90
8684;DHT22;4379;59.744;18.206;2022-12-18T16:01:56;2.10;99.90
8684;DHT22;4379;59.744;18.206;2022-12-18T16:04:24;2.10;99.90
8684;DHT22;4379;59.744;18.206;2022-12-18T16:06:52;2.20;99.90
8684;DHT22;4379;59.744;18.206;2022-12-18T16:09:40;2.30;99.90
8684;DHT22;4379;59.744;18.206;2022-12-18T16:12:18;2.20;99.90
8684;DHT22;4379;59.744;18.206;2022-12-18T16:14:46;2.20;99.90
8684;DHT22;4379;59.744;18.206;2022-12-18T16:17:13;2.20;99.90
8684;DHT22;4379;59.744;18.206;2022-12-18T16:19:41;2.20;99.90
8684;DHT22;4379;59.744;18.206;2022-12-18T16:22:21;2.10;99.90
8684;DHT22;4379;59.744;18.206;2022-12-18T16:24:50;2.10;99.90
8684;DHT22;4379;59.744;18.206;2022-12-18T16:27:18;2.10;99.90
8684;DHT22;4379;59.744;18.206;2022-12-18T16:29:45;2.20;99.90
8684;DHT22;4379;59.744;18.206;2022-12-18T16:32:19;2.20;99.90
8684;DHT22;4379;59.744;18.206;2022-12-18T16:34:47;2.20;99.90
8684;DHT22;4379;59.744;18.206;2022-12-18T16:37:15;2.20;99.90
8684;DHT22;4379;59.744;18.206;2022-12-18T16:39:45;2.20;99.90
8684;DHT22;4379;59.744;18.206;2022-12-18T16:42:15;2.10;99.90
8684;DHT22;4379;59.744;18.206;2022-12-18T16:44:44;2.00;99.90
8684;DHT22;4379;59.744;18.206;2022-12-18T16:47:12;2.00;99.90
8684;DHT22;4379;59.744;18.206;2022-12-18T16:49:42;2.00;99.90
8684;DHT22;4379;59.744;18.206;2022-12-18T16:52:12;2.00;99.90
8684;DHT22;4379;59.744;18.206;2022-12-18T16:54:40;2.00;99.90
8684;DHT22;4379;59.744;18.206;2022-12-18T16:57:09;2.00;99.90
8684;DHT22;4379;59.744;18.206;2022-12-18T16:59:39;1.90;99.90
8684;DHT22;4379;59.744;18.206;2022-12-18T17:02:12;1.90;99.90
8684;DHT22;4379;59.744;18.206;2022-12-18T17:04:43;1.80;99.90
8684;DHT22;4379;59.744;18.206;2022-12-18T17:07:11;1.80;99.90
8684;DHT22;4379;59.744;18.206;2022-12-18T17:09:39;1.80;99.90
8684;DHT22;4379;59.744;18.206;2022-12-18T17:12:06;1.80;99.90
8684;DHT22;4379;59.744;18.206;2022-12-18T17:14:36;1.70;99.90
8684;DHT22;4379;59.744;18.206;2022-12-18T17:17:04;1.70;99.90
8684;DHT22;4379;59.744;18.206;2022-12-18T17:19:49;1.70;99.90
8684;DHT22;4379;59.744;18.206;2022-12-18T17:22:17;1.70;99.90
8684;DHT22;4379;59.744;18.206;2022-12-18T17:24:45;1.70;99.90
8684;DHT22;4379;59.744;18.206;2022-12-18T17:27:14;1.60;99.90
8684;DHT22;4379;59.744;18.206;2022-12-18T17:29:41;1.60;99.90
8684;DHT22;4379;59.744;18.206;2022-12-18T17:32:13;1.60;99.90
8684;DHT22;4379;59.744;18.206;2022-12-18T17:34:40;1.60;99.90
8684;DHT22;4379;59.744;18.206;2022-12-18T17:37:08;1.50;99.90
8684;DHT22;4379;59.744;18.206;2022-12-18T17:39:35;1.40;99.90
8684;DHT22;4379;59.744;18.206;2022-12-18T17:42:03;1.40;99.90
8684;DHT22;4379;59.744;18.206;2022-12-18T17:44:31;1.40;99.90
8684;DHT22;4379;59.744;18.206;2022-12-18T17:47:00;1.40;99.90
8684;DHT22;4379;59.744;18.206;2022-12-18T17:49:28;1.30;99.90
8684;DHT22;4379;59.744;18.206;2022-12-18T17:51:55;1.30;99.90
8684;DHT22;4379;59.744;18.206;2022-12-18T17:54:22;1.30;99.90
8684;DHT22;4379;59.744;18.206;2022-12-18T17:56:49;1.20;99.90
8684;DHT22;4379;59.744;18.206;2022-12-18T17:59:17;1.10;99.90
8684;DHT22;4379;59.744;18.206;2022-12-18T18:01:44;1.00;99.90
8684;DHT22;4379;59.744;18.206;2022-12-18T18:04:13;1.00;99.90